Time;durP1;ratioP1;P1;durP2;ratioP2;P2;SDS_P1;SDS_P2;PMS_P1;PMS_P2;Temp;Humidity;BMP_temperature;BMP_pressure;BME280_temperature;BME280_humidity;BME280_pressure;Samples;Min_cycle;Max_cycle;Signal;HPM_P1;HPM_P2
2023/12/14 00:01:48;;;;;;;90.80;26.60;;;8.20;99.90;;;;;;5062644;28;20192;-60
2023/12/14 00:04:17;;;;;;;94.63;27.30;;;8.30;99.90;;;;;;5057629;28;20226;-59
2023/12/14 00:06:45;;;;;;;102.07;27.87;;;8.30;99.90;;;;;;5062654;28;20592;-60
2023/12/14 00:09:13;;;;;;;108.93;29.33;;;8.30;99.90;;;;;;5066337;28;20737;-60
2023/12/14 00:11:43;;;;;;;106.70;29.57;;;8.30;99.90;;;;;;5062629;28;20221;-59
2023/12/14 00:14:11;;;;;;;100.90;28.90;;;8.30;99.90;;;;;;5061037;28;20203;-59
2023/12/14 00:16:40;;;;;;;103.63;28.77;;;8.30;99.90;;;;;;5067762;28;20208;-60
2023/12/14 00:19:08;;;;;;;99.03;29.23;;;8.30;99.90;;;;;;5068537;28;20227;-60
2023/12/14 00:21:36;;;;;;;96.30;29.57;;;8.30;99.90;;;;;;5070843;28;20227;-60
2023/12/14 00:24:05;;;;;;;101.63;29.50;;;8.30;99.90;;;;;;5060085;28;20254;-59
2023/12/14 00:26:35;;;;;;;97.53;29.37;;;8.30;99.90;;;;;;5065871;28;20222;-59
2023/12/14 00:29:04;;;;;;;108.47;29.70;;;8.30;99.90;;;;;;5064424;28;20203;-60
2023/12/14 00:31:32;;;;;;;105.27;30.67;;;8.30;99.90;;;;;;5044853;28;20596;-60
2023/12/14 00:34:01;;;;;;;101.97;30.33;;;8.30;99.90;;;;;;5060950;28;20903;-59
2023/12/14 00:36:29;;;;;;;98.43;29.87;;;8.30;99.90;;;;;;5060801;28;20236;-59
2023/12/14 00:38:57;;;;;;;106.07;31.37;;;8.30;99.90;;;;;;5059711;28;20253;-59
2023/12/14 00:41:25;;;;;;;107.80;30.50;;;8.30;99.90;;;;;;5045141;28;20307;-60
2023/12/14 00:43:54;;;;;;;108.53;32.00;;;8.30;99.90;;;;;;5049789;28;20635;-59
2023/12/14 00:46:23;;;;;;;106.30;31.47;;;8.30;99.90;;;;;;5041240;28;20193;-60
2023/12/14 00:48:52;;;;;;;106.83;29.73;;;8.30;99.90;;;;;;5062224;28;20222;-60
2023/12/14 00:51:20;;;;;;;108.27;30.30;;;8.30;99.90;;;;;;5063961;28;20251;-60
2023/12/14 00:53:48;;;;;;;100.20;30.13;;;8.30;99.90;;;;;;5066034;28;20218;-60
2023/12/14 00:56:16;;;;;;;105.13;32.60;;;8.30;99.90;;;;;;5063110;28;20258;-60
2023/12/14 00:58:47;;;;;;;109.10;31.57;;;8.30;99.90;;;;;;5066514;28;20196;-60
2023/12/14 01:01:16;;;;;;;109.53;30.97;;;8.30;99.90;;;;;;5064046;28;20297;-59
2023/12/14 01:03:45;;;;;;;111.53;31.77;;;8.30;99.90;;;;;;5065026;28;20218;-59
2023/12/14 01:06:14;;;;;;;116.17;33.17;;;8.30;99.90;;;;;;5065445;28;20219;-59
2023/12/14 01:08:42;;;;;;;118.73;33.13;;;8.30;99.90;;;;;;5059376;28;20225;-59
2023/12/14 01:11:10;;;;;;;113.63;33.10;;;8.30;99.90;;;;;;5041259;28;20194;-60
2023/12/14 01:13:39;;;;;;;114.17;32.20;;;8.30;99.90;;;;;;5047034;28;20193;-59
2023/12/14 01:16:08;;;;;;;119.47;33.87;;;8.30;99.90;;;;;;5045051;28;20234;-60
2023/12/14 01:18:36;;;;;;;116.97;32.43;;;8.30;99.90;;;;;;5044796;28;20275;-60
2023/12/14 01:21:06;;;;;;;120.33;33.50;;;8.30;99.90;;;;;;5048863;28;20228;-59
2023/12/14 01:23:34;;;;;;;113.33;32.63;;;8.30;99.90;;;;;;5045215;28;20575;-59
2023/12/14 01:26:03;;;;;;;94.23;31.20;;;8.30;99.90;;;;;;5044886;28;20197;-59
2023/12/14 01:28:31;;;;;;;101.00;32.67;;;8.30;99.90;;;;;;5045488;28;20912;-60
2023/12/14 01:30:59;;;;;;;98.93;33.30;;;8.20;99.90;;;;;;5042756;28;20303;-59
2023/12/14 01:33:28;;;;;;;90.93;31.40;;;8.20;99.90;;;;;;5044356;28;20760;-59
2023/12/14 01:35:56;;;;;;;82.97;29.97;;;8.20;99.90;;;;;;5038769;28;20236;-60
2023/12/14 01:38:27;;;;;;;80.30;30.17;;;8.10;99.90;;;;;;5041080;28;22028;-59
2023/12/14 01:40:56;;;;;;;77.63;28.70;;;8.10;99.90;;;;;;5042732;28;20197;-60
2023/12/14 01:43:25;;;;;;;63.83;27.10;;;8.00;99.90;;;;;;5044732;28;20220;-60
2023/12/14 01:45:53;;;;;;;71.40;27.50;;;8.00;99.90;;;;;;5045153;28;20221;-60
2023/12/14 01:48:21;;;;;;;69.93;26.90;;;7.90;99.90;;;;;;5047155;28;20217;-59
2023/12/14 01:50:49;;;;;;;65.57;26.30;;;7.90;99.90;;;;;;5036558;28;20221;-60
2023/12/14 01:53:18;;;;;;;67.33;27.33;;;7.90;99.90;;;;;;5038304;28;20225;-60
2023/12/14 01:55:47;;;;;;;65.77;26.93;;;7.80;99.90;;;;;;5039879;28;20204;-60
2023/12/14 01:58:16;;;;;;;63.83;25.77;;;7.80;99.90;;;;;;5041250;28;20225;-60
2023/12/14 02:00:52;;;;;;;68.93;26.87;;;7.80;99.90;;;;;;5044332;28;20225;-60
2023/12/14 02:03:20;;;;;;;60.13;25.97;;;7.80;99.90;;;;;;5046450;28;20293;-60
2023/12/14 02:05:49;;;;;;;67.43;26.73;;;7.70;99.90;;;;;;5044587;28;20221;-60
2023/12/14 02:08:17;;;;;;;66.07;26.57;;;7.70;99.90;;;;;;5043283;28;20256;-60
2023/12/14 02:10:48;;;;;;;69.43;27.17;;;7.70;99.90;;;;;;5044540;28;20800;-60
2023/12/14 02:13:16;;;;;;;71.67;26.33;;;7.70;99.90;;;;;;5044699;28;20221;-59
2023/12/14 02:15:44;;;;;;;75.00;28.00;;;7.60;99.90;;;;;;5043161;28;20209;-60
2023/12/14 02:18:12;;;;;;;80.43;29.20;;;7.60;99.90;;;;;;5043467;28;20729;-60
2023/12/14 02:20:41;;;;;;;79.37;29.37;;;7.60;99.90;;;;;;5047079;28;20220;-60
2023/12/14 02:23:10;;;;;;;66.97;25.60;;;7.60;99.90;;;;;;5043888;28;20643;-60
2023/12/14 02:25:38;;;;;;;62.57;25.00;;;7.50;99.90;;;;;;5046222;28;20189;-60
2023/12/14 02:28:07;;;;;;;63.27;25.03;;;7.50;99.90;;;;;;5045220;28;20217;-60
2023/12/14 02:30:35;;;;;;;58.37;23.43;;;7.50;99.90;;;;;;5042207;28;20696;-60
2023/12/14 02:33:03;;;;;;;52.07;23.67;;;7.40;99.90;;;;;;5037524;28;20602;-60
2023/12/14 02:35:32;;;;;;;52.57;23.70;;;7.40;99.90;;;;;;5045851;28;20228;-60
2023/12/14 02:38:00;;;;;;;50.73;23.60;;;7.30;99.90;;;;;;5041298;28;20259;-60
2023/12/14 02:40:30;;;;;;;47.47;22.93;;;7.20;99.90;;;;;;5043161;28;20254;-60
2023/12/14 02:42:58;;;;;;;51.07;23.03;;;7.20;99.90;;;;;;5040229;28;20228;-60
2023/12/14 02:45:26;;;;;;;42.60;20.77;;;7.10;99.90;;;;;;5043916;28;20229;-60
2023/12/14 02:47:55;;;;;;;37.60;20.50;;;7.00;99.90;;;;;;5042238;28;20579;-59
2023/12/14 02:50:23;;;;;;;41.20;20.87;;;6.90;99.90;;;;;;5048283;28;20221;-60
2023/12/14 02:52:51;;;;;;;38.67;20.27;;;6.90;99.90;;;;;;5041054;28;20204;-60
2023/12/14 02:55:20;;;;;;;44.87;20.67;;;6.90;99.90;;;;;;5062011;28;20220;-60
2023/12/14 02:57:52;;;;;;;37.93;19.90;;;6.80;99.90;;;;;;5046479;28;20575;-60
2023/12/14 03:00:20;;;;;;;39.60;21.57;;;6.80;99.90;;;;;;5044163;28;20221;-60
2023/12/14 03:02:49;;;;;;;38.13;19.90;;;6.80;99.90;;;;;;5044986;28;20216;-60
2023/12/14 03:05:17;;;;;;;42.27;19.97;;;6.70;99.90;;;;;;5045527;28;20620;-59
2023/12/14 03:07:46;;;;;;;41.00;20.70;;;6.70;99.90;;;;;;5049183;28;20293;-60
2023/12/14 03:10:13;;;;;;;43.53;19.93;;;6.70;99.90;;;;;;5038550;28;20217;-60
2023/12/14 03:12:41;;;;;;;49.03;22.87;;;6.70;99.90;;;;;;5039542;28;20225;-60
2023/12/14 03:15:11;;;;;;;50.87;22.50;;;6.70;99.90;;;;;;5038655;28;20544;-59
2023/12/14 03:17:39;;;;;;;47.17;22.60;;;6.60;99.90;;;;;;5041287;28;20828;-59
2023/12/14 03:20:09;;;;;;;45.77;22.07;;;6.60;99.90;;;;;;5044587;28;20188;-60
2023/12/14 03:22:38;;;;;;;44.93;21.97;;;6.60;99.90;;;;;;5043321;28;20189;-60
2023/12/14 03:25:08;;;;;;;47.53;22.60;;;6.60;99.90;;;;;;5047241;28;20595;-60
2023/12/14 03:27:36;;;;;;;46.77;22.00;;;6.60;99.90;;;;;;5058199;28;20693;-60
2023/12/14 03:30:09;;;;;;;43.37;22.10;;;6.60;99.90;;;;;;5064411;28;20228;-59
2023/12/14 03:32:41;;;;;;;43.33;22.03;;;6.50;99.90;;;;;;5062080;28;20223;-60
2023/12/14 03:35:09;;;;;;;42.23;20.27;;;6.50;99.90;;;;;;5062635;28;20641;-59
2023/12/14 03:37:38;;;;;;;41.53;21.63;;;6.50;99.90;;;;;;5062315;28;20208;-60
2023/12/14 03:40:07;;;;;;;40.07;20.80;;;6.40;99.90;;;;;;5059922;28;20314;-60
2023/12/14 03:42:36;;;;;;;40.53;21.33;;;6.40;99.90;;;;;;5062688;28;20228;-59
2023/12/14 03:45:06;;;;;;;36.60;21.67;;;6.50;99.90;;;;;;5062680;28;20231;-60
2023/12/14 03:47:34;;;;;;;36.53;21.97;;;6.50;99.90;;;;;;5058594;28;20215;-59
2023/12/14 03:50:04;;;;;;;36.00;21.03;;;6.40;99.90;;;;;;5066431;28;20500;-59
2023/12/14 03:52:33;;;;;;;34.80;20.73;;;6.50;99.90;;;;;;5064191;28;20290;-60
2023/12/14 03:55:02;;;;;;;34.03;20.70;;;6.50;99.90;;;;;;5062739;28;20228;-60
2023/12/14 03:57:30;;;;;;;37.13;21.80;;;6.50;99.90;;;;;;5066968;28;20296;-60
2023/12/14 03:59:58;;;;;;;35.57;20.27;;;6.40;99.90;;;;;;5064725;28;20212;-60
2023/12/14 04:02:27;;;;;;;32.97;19.90;;;6.40;99.90;;;;;;5065669;28;20219;-60
2023/12/14 04:04:55;;;;;;;29.17;18.17;;;6.40;99.90;;;;;;5064201;28;20195;-59
2023/12/14 04:07:25;;;;;;;31.83;17.90;;;6.40;99.90;;;;;;5070205;28;20283;-58
2023/12/14 04:09:54;;;;;;;25.87;17.77;;;6.30;99.90;;;;;;5063592;28;20255;-59
2023/12/14 04:12:22;;;;;;;31.80;18.33;;;6.40;99.90;;;;;;5068324;28;20319;-60
2023/12/14 04:14:51;;;;;;;26.27;18.37;;;6.30;99.90;;;;;;5064768;28;20235;-60
2023/12/14 04:17:19;;;;;;;28.67;17.03;;;6.30;99.90;;;;;;5061130;28;20238;-60
2023/12/14 04:19:47;;;;;;;24.20;16.50;;;6.30;99.90;;;;;;5067067;28;20238;-60
2023/12/14 04:22:15;;;;;;;23.33;15.60;;;6.30;99.90;;;;;;5068728;28;20269;-60
2023/12/14 04:24:45;;;;;;;21.00;15.57;;;6.20;99.90;;;;;;5069198;28;20224;-60
2023/12/14 04:27:13;;;;;;;20.67;14.60;;;6.20;99.90;;;;;;5062722;28;20619;-59
2023/12/14 04:29:41;;;;;;;20.47;14.13;;;6.20;99.90;;;;;;5068004;28;20224;-60
2023/12/14 04:32:09;;;;;;;17.73;13.40;;;6.20;99.90;;;;;;5069204;28;20192;-60
2023/12/14 04:34:38;;;;;;;19.77;13.47;;;6.20;99.90;;;;;;5064253;28;20216;-60
2023/12/14 04:37:06;;;;;;;20.13;13.03;;;6.20;99.90;;;;;;5063057;28;20255;-60
2023/12/14 04:39:34;;;;;;;20.27;12.73;;;6.20;99.90;;;;;;5065865;28;20221;-59
2023/12/14 04:42:04;;;;;;;20.80;13.50;;;6.20;99.90;;;;;;5062858;28;20224;-60
2023/12/14 04:44:32;;;;;;;18.57;12.63;;;6.20;99.90;;;;;;5065963;28;20212;-59
2023/12/14 04:47:01;;;;;;;19.57;12.83;;;6.20;99.90;;;;;;5070186;28;20309;-60
2023/12/14 04:49:29;;;;;;;18.03;13.00;;;6.10;99.90;;;;;;5069319;28;20192;-60
2023/12/14 04:51:57;;;;;;;20.37;12.83;;;6.20;99.90;;;;;;5067860;28;20223;-59
2023/12/14 04:54:25;;;;;;;22.73;13.23;;;6.20;99.90;;;;;;5067597;28;20216;-60
2023/12/14 04:56:53;;;;;;;20.70;13.27;;;6.20;99.90;;;;;;5069530;28;20304;-59
2023/12/14 04:59:23;;;;;;;20.60;14.23;;;6.20;99.90;;;;;;5070286;28;20223;-60
2023/12/14 05:01:51;;;;;;;19.87;13.47;;;6.20;99.90;;;;;;5066729;28;20199;-60
2023/12/14 05:04:19;;;;;;;21.37;14.60;;;6.20;99.90;;;;;;5070492;28;20234;-59
2023/12/14 05:06:48;;;;;;;25.77;14.80;;;6.10;99.90;;;;;;5059886;28;20216;-60
2023/12/14 05:09:16;;;;;;;21.43;14.33;;;6.20;99.90;;;;;;5068059;28;20216;-60
2023/12/14 05:11:44;;;;;;;25.53;14.20;;;6.20;99.90;;;;;;5064620;28;20224;-60
2023/12/14 05:14:13;;;;;;;23.20;14.77;;;6.20;99.90;;;;;;5068033;28;20232;-60
2023/12/14 05:16:42;;;;;;;22.30;14.70;;;6.20;99.90;;;;;;5067064;28;20555;-60
2023/12/14 05:19:12;;;;;;;22.23;13.30;;;6.20;99.90;;;;;;5066129;28;20325;-60
2023/12/14 05:21:40;;;;;;;23.23;14.50;;;6.20;99.90;;;;;;5067423;28;20211;-60
2023/12/14 05:24:09;;;;;;;19.07;13.37;;;6.20;99.90;;;;;;5066925;28;20357;-60
2023/12/14 05:26:37;;;;;;;20.63;13.23;;;6.20;99.90;;;;;;5063293;28;20220;-60
2023/12/14 05:29:05;;;;;;;21.87;13.37;;;6.20;99.90;;;;;;5066561;28;20292;-60
2023/12/14 05:31:33;;;;;;;21.80;13.83;;;6.20;99.90;;;;;;5067708;28;20282;-59
2023/12/14 05:34:03;;;;;;;24.30;13.13;;;6.20;99.90;;;;;;5065621;28;20220;-60
2023/12/14 05:36:31;;;;;;;22.30;13.17;;;6.20;99.90;;;;;;5063622;28;20212;-59
2023/12/14 05:38:59;;;;;;;23.93;13.33;;;6.20;99.90;;;;;;5066173;28;20261;-59
2023/12/14 05:41:29;;;;;;;22.90;13.30;;;6.10;99.90;;;;;;5068681;28;20651;-60
2023/12/14 05:43:58;;;;;;;20.57;12.23;;;6.10;99.90;;;;;;5065943;28;20546;-59
2023/12/14 05:46:26;;;;;;;19.30;12.03;;;6.10;99.90;;;;;;5063624;28;20192;-60
2023/12/14 05:48:54;;;;;;;22.93;11.87;;;6.20;99.90;;;;;;5069801;28;21045;-60
2023/12/14 05:51:31;;;;;;;25.00;12.43;;;6.20;99.90;;;;;;5063089;28;20354;-60
2023/12/14 05:54:00;;;;;;;21.83;12.43;;;6.20;99.90;;;;;;5062650;28;20230;-60
2023/12/14 05:56:29;;;;;;;18.60;11.80;;;6.20;99.90;;;;;;5066112;28;20231;-60
2023/12/14 05:58:57;;;;;;;19.23;11.57;;;6.20;99.90;;;;;;5063886;28;20204;-59
2023/12/14 06:01:26;;;;;;;17.73;11.47;;;6.10;99.90;;;;;;5065470;28;20192;-59
2023/12/14 06:03:54;;;;;;;19.30;11.00;;;6.10;99.90;;;;;;5062575;28;20216;-59
2023/12/14 06:06:22;;;;;;;17.87;11.30;;;6.10;99.90;;;;;;5063392;28;20654;-59
2023/12/14 06:08:52;;;;;;;19.07;10.67;;;6.20;99.90;;;;;;5065461;28;20219;-59
2023/12/14 06:11:20;;;;;;;18.67;10.57;;;6.20;99.90;;;;;;5062445;28;20311;-59
2023/12/14 06:13:49;;;;;;;18.77;10.43;;;6.10;99.90;;;;;;5065562;28;20263;-59
2023/12/14 06:16:17;;;;;;;20.93;10.27;;;6.20;99.90;;;;;;5062694;28;20783;-59
2023/12/14 06:18:45;;;;;;;14.60;9.43;;;6.10;99.90;;;;;;5062778;28;20240;-58
2023/12/14 06:21:14;;;;;;;14.60;10.03;;;6.10;99.90;;;;;;5065774;28;20216;-59
2023/12/14 06:23:46;;;;;;;17.67;9.60;;;6.10;99.90;;;;;;5063503;28;20215;-59
2023/12/14 06:26:18;;;;;;;13.17;9.10;;;6.10;99.90;;;;;;5064143;28;20584;-59
2023/12/14 06:28:47;;;;;;;14.87;8.60;;;6.10;99.90;;;;;;5060877;28;20290;-58
2023/12/14 06:31:15;;;;;;;12.57;8.27;;;6.10;99.90;;;;;;5063857;28;20208;-58
2023/12/14 06:33:44;;;;;;;11.47;8.07;;;6.00;99.90;;;;;;5062897;28;20223;-58
2023/12/14 06:36:12;;;;;;;14.53;9.00;;;6.00;99.90;;;;;;5064477;28;20227;-59
2023/12/14 06:38:41;;;;;;;16.47;9.73;;;5.80;99.90;;;;;;5061946;28;20306;-59
2023/12/14 06:41:09;;;;;;;15.37;9.27;;;5.70;99.90;;;;;;5061083;28;20204;-59
2023/12/14 06:43:40;;;;;;;14.60;9.40;;;5.60;99.90;;;;;;5062209;28;20658;-60
2023/12/14 06:46:09;;;;;;;16.27;8.83;;;5.50;99.90;;;;;;5061223;28;20935;-59
2023/12/14 06:48:37;;;;;;;16.33;8.60;;;5.40;99.90;;;;;;5066958;28;20224;-60
2023/12/14 06:51:06;;;;;;;13.90;8.20;;;5.30;99.90;;;;;;5063970;28;20227;-59
2023/12/14 06:53:35;;;;;;;12.10;8.47;;;5.20;99.90;;;;;;5060912;28;20220;-59
2023/12/14 06:56:03;;;;;;;13.70;8.37;;;5.10;99.90;;;;;;5063331;28;20196;-59
2023/12/14 06:58:31;;;;;;;17.50;9.07;;;5.00;99.90;;;;;;5063175;28;20309;-59
2023/12/14 07:01:01;;;;;;;15.33;8.87;;;5.00;99.90;;;;;;5058466;28;20293;-60
2023/12/14 07:03:30;;;;;;;14.07;8.87;;;4.90;99.90;;;;;;5060395;28;20228;-59
2023/12/14 07:05:58;;;;;;;11.77;8.80;;;5.00;99.90;;;;;;5058826;28;20686;-59
2023/12/14 07:08:27;;;;;;;16.77;9.87;;;5.00;99.90;;;;;;5063548;28;20841;-59
2023/12/14 07:10:55;;;;;;;15.70;9.20;;;5.10;99.90;;;;;;5063477;28;20187;-59
2023/12/14 07:13:23;;;;;;;17.60;9.97;;;5.20;99.90;;;;;;5063328;28;20188;-59
2023/12/14 07:15:52;;;;;;;14.73;9.47;;;5.20;99.90;;;;;;5064854;28;20227;-59
2023/12/14 07:18:22;;;;;;;26.27;10.90;;;5.30;99.90;;;;;;5060689;28;20227;-59
2023/12/14 07:20:50;;;;;;;15.63;9.57;;;5.40;99.90;;;;;;5064975;28;20598;-60
2023/12/14 07:23:20;;;;;;;15.53;9.20;;;5.40;99.90;;;;;;5065592;28;20220;-59
2023/12/14 07:25:49;;;;;;;14.10;8.47;;;5.50;99.90;;;;;;5060991;28;20200;-59
2023/12/14 07:28:17;;;;;;;13.73;9.13;;;5.50;99.90;;;;;;5055398;28;20216;-59
2023/12/14 07:30:46;;;;;;;20.40;8.83;;;5.50;99.90;;;;;;5059499;28;20208;-60
2023/12/14 07:33:15;;;;;;;13.87;8.90;;;5.60;99.90;;;;;;5052879;28;20220;-59
2023/12/14 07:35:45;;;;;;;17.77;8.33;;;5.60;99.90;;;;;;5059791;28;20243;-59
2023/12/14 07:38:15;;;;;;;19.23;9.57;;;5.60;99.90;;;;;;5058516;28;20220;-59
2023/12/14 07:40:45;;;;;;;15.90;9.33;;;5.70;99.90;;;;;;5064823;28;20211;-59
2023/12/14 07:43:14;;;;;;;11.97;8.47;;;5.70;99.90;;;;;;5064839;28;20612;-59
2023/12/14 07:45:42;;;;;;;12.57;8.80;;;5.70;99.90;;;;;;5055109;28;20250;-59
2023/12/14 07:48:10;;;;;;;19.07;9.90;;;5.70;99.90;;;;;;5059667;28;20223;-59
2023/12/14 07:50:39;;;;;;;17.53;9.40;;;5.70;99.90;;;;;;5056426;28;20220;-59
2023/12/14 07:53:08;;;;;;;19.67;9.13;;;5.70;99.90;;;;;;5063976;28;20192;-59
2023/12/14 07:55:37;;;;;;;13.53;8.53;;;5.70;99.90;;;;;;5065045;28;20196;-59
2023/12/14 07:58:05;;;;;;;12.00;8.03;;;5.80;99.90;;;;;;5065549;28;20297;-59
2023/12/14 08:00:36;;;;;;;14.97;8.53;;;5.80;99.90;;;;;;5064304;28;20227;-59
2023/12/14 08:03:05;;;;;;;16.87;10.13;;;5.80;99.90;;;;;;5067555;28;20281;-59
2023/12/14 08:05:33;;;;;;;16.43;10.03;;;5.80;99.90;;;;;;5060192;28;20220;-60
2023/12/14 08:08:02;;;;;;;14.60;8.20;;;5.90;99.90;;;;;;5063770;28;20228;-59
2023/12/14 08:10:32;;;;;;;12.43;8.67;;;5.90;99.90;;;;;;5061521;28;20208;-60
2023/12/14 08:13:00;;;;;;;14.40;8.23;;;5.80;99.90;;;;;;5060452;28;20208;-59
2023/12/14 08:15:29;;;;;;;12.87;8.70;;;5.80;99.90;;;;;;5062088;28;20242;-59
2023/12/14 08:17:58;;;;;;;19.60;9.10;;;5.80;99.90;;;;;;5064126;28;20230;-59
2023/12/14 08:20:26;;;;;;;15.83;8.37;;;5.80;99.90;;;;;;5055895;28;20220;-59
2023/12/14 08:22:54;;;;;;;14.80;8.20;;;5.90;99.90;;;;;;5057314;28;20202;-59
2023/12/14 08:25:23;;;;;;;11.03;8.47;;;6.00;99.90;;;;;;5063844;28;20192;-60
2023/12/14 08:27:52;;;;;;;18.97;8.17;;;6.10;99.90;;;;;;5067669;28;20236;-60
2023/12/14 08:30:20;;;;;;;17.33;8.63;;;6.20;99.90;;;;;;5058883;28;20216;-59
2023/12/14 08:32:49;;;;;;;10.70;7.37;;;6.30;99.90;;;;;;5060670;28;20861;-59
2023/12/14 08:35:17;;;;;;;12.80;7.43;;;6.40;99.90;;;;;;5060317;28;20216;-59
2023/12/14 08:37:45;;;;;;;14.07;7.93;;;6.40;99.90;;;;;;5062829;28;20290;-59
2023/12/14 08:40:13;;;;;;;15.20;7.63;;;6.50;99.90;;;;;;5061455;28;20223;-59
2023/12/14 08:42:42;;;;;;;16.27;7.57;;;6.50;99.90;;;;;;5058339;28;20310;-59
2023/12/14 08:45:12;;;;;;;10.90;7.10;;;6.60;99.90;;;;;;5062112;28;20703;-59
2023/12/14 08:47:40;;;;;;;12.43;6.73;;;6.70;99.90;;;;;;5059767;28;20221;-59
2023/12/14 08:50:09;;;;;;;12.70;7.30;;;6.70;99.90;;;;;;5061779;28;20188;-59
2023/12/14 08:52:37;;;;;;;10.00;6.50;;;6.80;99.90;;;;;;5061245;28;20289;-59
2023/12/14 08:55:07;;;;;;;11.97;7.03;;;6.80;99.90;;;;;;5078921;28;20230;-60
2023/12/14 08:57:36;;;;;;;10.73;6.63;;;6.80;99.90;;;;;;5062149;28;20220;-59
2023/12/14 09:00:06;;;;;;;13.67;7.20;;;6.90;99.90;;;;;;5060743;28;20551;-59
2023/12/14 09:02:36;;;;;;;11.83;7.73;;;6.90;99.90;;;;;;5063283;28;20224;-59
2023/12/14 09:05:06;;;;;;;13.33;6.90;;;6.90;99.90;;;;;;5065033;28;20192;-59
2023/12/14 09:07:35;;;;;;;11.27;6.90;;;7.00;99.90;;;;;;5060958;28;20189;-59
2023/12/14 09:10:03;;;;;;;14.40;7.73;;;7.00;99.90;;;;;;5061480;28;20220;-59
2023/12/14 09:12:31;;;;;;;15.77;7.37;;;7.00;99.90;;;;;;5060269;28;22094;-59
2023/12/14 09:15:00;;;;;;;13.97;7.60;;;7.00;99.90;;;;;;5063240;28;20243;-59
2023/12/14 09:17:32;;;;;;;18.63;8.27;;;7.00;99.90;;;;;;5061060;28;20228;-59
2023/12/14 09:20:08;;;;;;;17.27;7.80;;;7.00;99.90;;;;;;5057559;28;20193;-59
2023/12/14 09:22:36;;;;;;;15.97;8.43;;;7.00;99.90;;;;;;5062198;28;20530;-59
2023/12/14 09:25:05;;;;;;;12.23;7.10;;;7.00;99.90;;;;;;5063406;28;20224;-60
2023/12/14 09:27:34;;;;;;;18.53;7.83;;;7.00;99.90;;;;;;5065932;28;20589;-60
2023/12/14 09:30:04;;;;;;;15.50;7.90;;;7.00;99.90;;;;;;5066505;28;20212;-59
2023/12/14 09:32:32;;;;;;;14.57;7.70;;;7.00;99.90;;;;;;5064999;28;20324;-59
2023/12/14 09:35:01;;;;;;;14.37;8.27;;;7.00;99.90;;;;;;5065491;28;20219;-59
2023/12/14 09:37:32;;;;;;;15.60;8.07;;;7.00;99.90;;;;;;5065093;28;20551;-59
2023/12/14 09:40:01;;;;;;;13.70;7.93;;;7.00;99.90;;;;;;5059677;28;20211;-59
2023/12/14 09:42:29;;;;;;;14.60;7.57;;;7.10;99.90;;;;;;5062831;28;20216;-60
2023/12/14 09:44:58;;;;;;;15.40;7.50;;;7.10;99.90;;;;;;5061538;28;20230;-59
2023/12/14 09:47:27;;;;;;;15.83;7.53;;;7.20;99.90;;;;;;5065144;28;20223;-60
2023/12/14 09:49:55;;;;;;;19.13;7.77;;;7.30;99.90;;;;;;5066035;28;20179;-59
2023/12/14 09:52:23;;;;;;;12.63;7.10;;;7.30;99.90;;;;;;5059229;28;20272;-59
2023/12/14 09:54:53;;;;;;;13.80;7.50;;;7.40;99.90;;;;;;5062477;28;20216;-59
2023/12/14 09:57:25;;;;;;;14.30;7.03;;;7.40;99.90;;;;;;5060310;28;20231;-59
2023/12/14 09:59:54;;;;;;;12.17;6.90;;;7.40;99.90;;;;;;5061511;28;20555;-59
2023/12/14 10:02:26;;;;;;;10.90;6.80;;;7.50;99.90;;;;;;5059801;28;20688;-59
2023/12/14 10:04:55;;;;;;;12.40;7.27;;;7.50;99.90;;;;;;5070170;28;20184;-59
2023/12/14 10:07:23;;;;;;;15.57;7.10;;;7.60;99.90;;;;;;5058630;28;20207;-59
2023/12/14 10:09:53;;;;;;;12.67;6.63;;;7.70;99.90;;;;;;5054198;28;20224;-59
2023/12/14 10:12:24;;;;;;;13.27;7.20;;;7.80;99.90;;;;;;5065328;28;20224;-59
2023/12/14 10:15:02;;;;;;;10.60;6.70;;;7.90;99.90;;;;;;5057934;28;20220;-59
2023/12/14 10:17:32;;;;;;;16.30;7.47;;;8.00;99.90;;;;;;5064057;28;20219;-59
2023/12/14 10:20:04;;;;;;;17.07;7.70;;;8.10;99.90;;;;;;5061555;28;20574;-60
2023/12/14 10:22:33;;;;;;;13.10;7.10;;;8.20;99.90;;;;;;5059439;28;20279;-59
2023/12/14 10:25:03;;;;;;;16.70;7.27;;;8.20;99.90;;;;;;5065958;28;20223;-59
2023/12/14 10:27:31;;;;;;;9.63;7.23;;;8.20;99.90;;;;;;5060839;28;20216;-59
2023/12/14 10:30:00;;;;;;;13.90;6.80;;;8.20;99.90;;;;;;5061575;28;20218;-59
2023/12/14 10:32:29;;;;;;;15.77;6.57;;;8.30;99.90;;;;;;5064375;28;20227;-59
2023/12/14 10:34:58;;;;;;;15.80;7.33;;;8.30;99.90;;;;;;5063791;28;20771;-58
2023/12/14 10:37:26;;;;;;;18.50;7.67;;;8.20;99.90;;;;;;5063020;28;20203;-59
2023/12/14 10:39:56;;;;;;;13.83;7.33;;;8.20;99.90;;;;;;5063628;28;20226;-59
2023/12/14 10:42:28;;;;;;;13.60;7.80;;;8.10;99.90;;;;;;5060350;28;20687;-60
2023/12/14 10:44:57;;;;;;;14.93;7.60;;;8.10;99.90;;;;;;5057789;28;20223;-59
2023/12/14 10:47:46;;;;;;;15.87;8.17;;;8.10;99.90;;;;;;5067805;28;20315;-59
2023/12/14 10:50:16;;;;;;;13.70;7.63;;;8.00;99.90;;;;;;5060081;28;20228;-59
2023/12/14 10:52:46;;;;;;;17.07;8.43;;;8.00;99.90;;;;;;5061140;28;20188;-59
2023/12/14 10:55:23;;;;;;;16.87;8.37;;;7.80;99.90;;;;;;5059145;28;20235;-59
2023/12/14 10:57:54;;;;;;;15.93;7.60;;;7.80;99.90;;;;;;5064128;28;20229;-59
2023/12/14 11:00:22;;;;;;;12.47;7.03;;;7.70;99.90;;;;;;5067427;28;20214;-59
2023/12/14 11:02:52;;;;;;;16.00;7.97;;;7.70;99.90;;;;;;5060837;28;20307;-59
2023/12/14 11:05:29;;;;;;;13.53;7.43;;;7.70;99.90;;;;;;5058110;28;20758;-60
2023/12/14 11:08:03;;;;;;;14.47;7.00;;;7.70;99.90;;;;;;5053250;28;20307;-59
2023/12/14 11:10:39;;;;;;;12.90;7.20;;;7.70;99.90;;;;;;5040017;28;20927;-59
2023/12/14 11:13:12;;;;;;;10.43;6.90;;;7.70;99.90;;;;;;5038872;28;20223;-59
2023/12/14 11:15:41;;;;;;;14.87;7.90;;;7.70;99.90;;;;;;5037518;28;20217;-59
2023/12/14 11:18:26;;;;;;;15.47;8.33;;;7.70;99.90;;;;;;5045993;28;20232;-60
2023/12/14 11:20:56;;;;;;;14.63;8.57;;;7.70;99.90;;;;;;5041368;28;20216;-59
2023/12/14 11:23:31;;;;;;;15.13;8.80;;;7.80;99.90;;;;;;5043443;28;20220;-59
2023/12/14 11:26:03;;;;;;;15.53;8.60;;;7.90;99.90;;;;;;5055934;28;20195;-58
2023/12/14 11:28:34;;;;;;;14.97;8.80;;;7.90;99.90;;;;;;5053395;28;20194;-59
2023/12/14 11:31:06;;;;;;;15.07;8.90;;;8.00;99.90;;;;;;5041646;28;20225;-59
2023/12/14 11:33:36;;;;;;;16.73;9.13;;;8.00;99.90;;;;;;5040806;28;20228;-60
2023/12/14 11:36:13;;;;;;;16.13;8.77;;;8.10;99.90;;;;;;5041190;28;20228;-59
2023/12/14 11:38:43;;;;;;;13.10;7.83;;;8.00;99.90;;;;;;5044809;28;20312;-59
2023/12/14 11:41:11;;;;;;;11.50;7.90;;;8.00;99.90;;;;;;5040239;28;20208;-60
2023/12/14 11:43:44;;;;;;;20.20;8.87;;;8.00;99.90;;;;;;5041685;28;20213;-60
2023/12/14 11:46:13;;;;;;;21.43;9.03;;;8.00;99.90;;;;;;5043426;28;20980;-59
2023/12/14 11:48:44;;;;;;;14.07;8.27;;;7.90;99.90;;;;;;5038293;28;20725;-59
2023/12/14 11:51:13;;;;;;;14.80;8.00;;;7.90;99.90;;;;;;5041199;28;20292;-60
2023/12/14 11:53:42;;;;;;;13.20;7.73;;;7.90;99.90;;;;;;5049430;28;20643;-59
2023/12/14 11:56:10;;;;;;;11.67;8.00;;;7.90;99.90;;;;;;5060051;28;20550;-59
2023/12/14 11:58:44;;;;;;;12.80;7.90;;;7.90;99.90;;;;;;5063561;28;20188;-60
2023/12/14 12:01:14;;;;;;;12.70;7.23;;;8.00;99.90;;;;;;5059589;28;20234;-59
2023/12/14 12:03:44;;;;;;;14.67;8.20;;;8.00;99.90;;;;;;5059599;28;20713;-59
2023/12/14 12:06:22;;;;;;;22.57;8.50;;;8.10;99.90;;;;;;5056001;28;20269;-59
2023/12/14 12:08:51;;;;;;;16.63;8.03;;;8.10;99.90;;;;;;5055595;28;20224;-59
2023/12/14 12:11:20;;;;;;;17.03;7.30;;;8.10;99.90;;;;;;5060033;28;20310;-59
2023/12/14 12:13:53;;;;;;;11.53;8.13;;;8.10;99.90;;;;;;5065105;28;20192;-59
2023/12/14 12:16:22;;;;;;;12.10;7.93;;;8.10;99.90;;;;;;5059812;28;20218;-59
2023/12/14 12:18:51;;;;;;;16.13;8.90;;;8.10;99.90;;;;;;5055026;28;20232;-59
2023/12/14 12:21:20;;;;;;;15.67;8.90;;;8.20;99.90;;;;;;5045078;28;20718;-59
2023/12/14 12:23:48;;;;;;;17.33;9.00;;;8.20;99.90;;;;;;5040001;28;20220;-59
2023/12/14 12:26:16;;;;;;;14.60;9.10;;;8.20;99.90;;;;;;5042885;28;20613;-59
2023/12/14 12:28:47;;;;;;;14.53;8.73;;;8.20;99.90;;;;;;5040834;28;20199;-59
2023/12/14 12:31:17;;;;;;;17.87;9.67;;;8.30;99.90;;;;;;5041885;28;20877;-59
2023/12/14 12:33:46;;;;;;;19.53;8.90;;;8.40;99.90;;;;;;5054009;28;20220;-59
2023/12/14 12:36:15;;;;;;;21.03;9.07;;;8.50;99.90;;;;;;5062850;28;20227;-59
2023/12/14 12:38:43;;;;;;;13.23;7.57;;;8.40;99.90;;;;;;5065292;28;20273;-59
2023/12/14 12:41:11;;;;;;;14.53;7.60;;;8.40;99.90;;;;;;5064952;28;20196;-59
2023/12/14 12:43:40;;;;;;;14.93;8.77;;;8.50;99.90;;;;;;5068026;28;20216;-59
2023/12/14 12:46:08;;;;;;;10.90;7.73;;;8.50;99.90;;;;;;5061070;28;20220;-59
2023/12/14 12:48:38;;;;;;;11.37;7.40;;;8.50;99.90;;;;;;5072394;28;20231;-60
2023/12/14 12:51:07;;;;;;;16.77;7.93;;;8.50;99.90;;;;;;5061844;28;20251;-59